Time;durP1;ratioP1;P1;durP2;ratioP2;P2;SDS_P1;SDS_P2;PMS_P1;PMS_P2;Temp;Humidity;BMP_temperature;BMP_pressure;BME280_temperature;BME280_humidity;BME280_pressure;Samples;Min_cycle;Max_cycle;Signal;HPM_P1;HPM_P2
2023/09/03 00:02:06;;;;;;;34.38;22.93;;;;;;;12.43;76.55;100873.00;1761916;81;27573;-59
2023/09/03 00:04:32;;;;;;;24.45;18.75;;;;;;;12.42;76.98;100874.92;1742580;82;26128;-60
2023/09/03 00:06:58;;;;;;;27.73;21.87;;;;;;;12.48;78.72;100870.17;1761892;81;25526;-60
2023/09/03 00:09:25;;;;;;;29.10;21.45;;;;;;;12.48;78.72;100870.17;1761854;81;26041;-60
2023/09/03 00:11:51;;;;;;;24.55;19.32;;;;;;;12.52;78.86;100873.89;1761854;81;25464;-58
2023/09/03 00:14:17;;;;;;;40.90;27.58;;;;;;;12.55;79.09;100874.63;1742666;82;27477;-60
2023/09/03 00:16:43;;;;;;;36.65;24.52;;;;;;;12.56;79.05;100874.86;1761815;81;25551;-60
2023/09/03 00:19:10;;;;;;;28.25;20.90;;;;;;;12.57;78.92;100871.05;1761935;81;25513;-59
2023/09/03 00:21:36;;;;;;;25.90;19.23;;;;;;;12.57;79.10;100869.70;1761859;81;26532;-60
2023/09/03 00:24:03;;;;;;;29.87;19.12;;;;;;;12.54;78.57;100870.87;1761875;81;25983;-58
2023/09/03 00:26:29;;;;;;;26.07;18.45;;;;;;;12.51;78.58;100874.98;1761930;81;27597;-60
2023/09/03 00:28:57;;;;;;;22.67;17.12;;;;;;;12.49;78.70;100878.56;1761802;81;25397;-59
2023/09/03 00:31:25;;;;;;;22.73;16.65;;;;;;;12.49;78.70;100876.64;1761878;81;25585;-59
2023/09/03 00:33:52;;;;;;;22.35;16.57;;;;;;;12.49;78.88;100875.86;1761841;81;25624;-59
2023/09/03 00:36:18;;;;;;;22.27;15.88;;;;;;;12.50;78.92;100876.91;1761935;81;25392;-59
2023/09/03 00:38:52;;;;;;;21.70;15.35;;;;;;;12.49;78.89;100875.86;1761877;80;27583;-60
2023/09/03 00:41:19;;;;;;;21.70;15.80;;;;;;;12.46;78.77;100867.79;1761853;81;25471;-59
2023/09/03 00:43:45;;;;;;;23.12;16.73;;;;;;;12.41;78.26;100871.98;1761897;81;25492;-59
2023/09/03 00:46:12;;;;;;;23.85;15.30;;;;;;;12.36;78.25;100873.45;1761854;81;25543;-59
2023/09/03 00:48:41;;;;;;;20.37;15.72;;;;;;;12.30;77.96;100873.31;1761847;81;25387;-59
2023/09/03 00:51:10;;;;;;;21.07;15.97;;;;;;;12.24;78.01;100872.63;1762086;81;27552;-59
2023/09/03 00:53:40;;;;;;;19.73;15.10;;;;;;;12.21;78.19;100871.06;1761803;81;25791;-59
2023/09/03 00:56:08;;;;;;;22.62;15.63;;;;;;;12.16;78.31;100873.35;1761913;81;25594;-60
2023/09/03 00:58:37;;;;;;;21.48;15.80;;;;;;;12.12;78.69;100875.88;1761839;81;25538;-59
2023/09/03 01:01:05;;;;;;;20.68;16.07;;;;;;;12.10;78.87;100874.56;1761887;81;25601;-59
2023/09/03 01:03:32;;;;;;;22.37;16.07;;;;;;;12.08;79.11;100870.80;1761829;81;27468;-59
2023/09/03 01:05:59;;;;;;;20.05;14.95;;;;;;;12.07;79.21;100868.38;1761772;81;25712;-60
2023/09/03 01:08:28;;;;;;;22.40;15.98;;;;;;;12.07;79.29;100869.74;1761867;81;25416;-59
2023/09/03 01:11:05;;;;;;;22.52;14.95;;;;;;;12.04;79.38;100868.45;1761848;81;26069;-60
2023/09/03 01:14:04;;;;;;;20.77;15.05;;;;;;;12.01;79.38;100860.92;1760957;81;25400;-59
2023/09/03 01:16:44;;;;;;;19.05;14.50;;;;;;;11.96;79.41;100860.48;1713832;83;27496;-58
2023/09/03 01:19:42;;;;;;;20.45;14.30;;;;;;;11.93;79.43;100850.23;1713652;83;25575;-59
2023/09/03 01:22:32;;;;;;;19.98;14.38;;;;;;;11.89;79.40;100853.28;1698303;84;25482;-59
2023/09/03 01:25:10;;;;;;;19.20;14.98;;;;;;;11.87;79.26;100854.15;1695839;84;26072;-60
2023/09/03 01:28:00;;;;;;;19.48;13.83;;;;;;;11.84;78.97;100852.04;1665926;86;25604;-60
2023/09/03 01:30:28;;;;;;;20.80;14.98;;;;;;;11.83;79.16;100854.48;1666337;86;27564;-60
2023/09/03 01:32:58;;;;;;;23.45;15.18;;;;;;;11.82;79.07;100850.75;1666331;86;25704;-60
2023/09/03 01:35:25;;;;;;;19.98;14.65;;;;;;;11.82;79.33;100855.61;1666525;86;25622;-61
2023/09/03 01:37:52;;;;;;;20.23;13.78;;;;;;;11.81;78.98;100855.91;1666391;86;26150;-60
2023/09/03 01:40:19;;;;;;;19.92;14.58;;;;;;;11.78;78.80;100860.02;1666402;86;25569;-60
2023/09/03 01:42:45;;;;;;;22.30;15.48;;;;;;;11.75;78.81;100862.00;1666403;86;27551;-62
2023/09/03 01:45:11;;;;;;;20.05;15.18;;;;;;;11.71;78.63;100861.81;1666372;86;25510;-60
2023/09/03 01:47:43;;;;;;;18.92;14.60;;;;;;;11.68;78.85;100863.77;1666430;86;25594;-60
2023/09/03 01:50:18;;;;;;;21.77;13.78;;;;;;;11.64;79.01;100864.09;1666317;86;25515;-60
2023/09/03 01:52:50;;;;;;;16.12;13.62;;;;;;;11.62;78.96;100860.89;1668892;84;25717;-60
2023/09/03 01:55:19;;;;;;;20.55;15.05;;;;;;;11.57;78.79;100865.06;1667827;84;27545;-60
2023/09/03 01:57:53;;;;;;;16.95;14.13;;;;;;;11.57;78.88;100859.64;1691273;84;34856;-61
2023/09/03 02:00:21;;;;;;;18.27;13.62;;;;;;;11.56;78.92;100854.78;1689052;84;25663;-61
2023/09/03 02:02:49;;;;;;;20.10;14.33;;;;;;;11.54;79.30;100859.70;1688701;85;25550;-61
2023/09/03 02:05:18;;;;;;;21.37;14.95;;;;;;;11.53;79.27;100858.66;1729018;82;25586;-61
2023/09/03 02:07:44;;;;;;;20.05;14.45;;;;;;;11.52;79.36;100857.03;1751267;82;27458;-61
2023/09/03 02:10:10;;;;;;;19.57;14.93;;;;;;;11.51;79.52;100856.23;1750865;81;25380;-62
2023/09/03 02:12:38;;;;;;;18.87;14.78;;;;;;;11.50;79.50;100853.27;1747159;81;25480;-61
2023/09/03 02:15:07;;;;;;;20.72;15.18;;;;;;;11.49;79.72;100854.92;1745383;82;25618;-60
2023/09/03 02:17:33;;;;;;;23.25;15.40;;;;;;;11.48;79.85;100853.34;1745587;82;25532;-62
2023/09/03 02:20:01;;;;;;;21.55;14.68;;;;;;;11.43;79.71;100851.52;1745408;82;28153;-61
2023/09/03 02:22:27;;;;;;;21.60;14.45;;;;;;;11.41;79.88;100841.55;1745314;81;25667;-61
2023/09/03 02:24:53;;;;;;;22.98;15.28;;;;;;;11.36;79.68;100843.79;1756328;81;25391;-61
2023/09/03 02:27:20;;;;;;;20.12;14.70;;;;;;;11.35;79.95;100846.23;1745598;82;25562;-60
2023/09/03 02:29:46;;;;;;;18.27;15.03;;;;;;;11.35;80.37;100844.09;1745646;82;25499;-61
2023/09/03 02:32:12;;;;;;;20.88;16.23;;;;;;;11.35;80.21;100844.88;1745689;82;27525;-60
2023/09/03 02:34:39;;;;;;;19.57;15.95;;;;;;;11.35;80.27;100840.81;1745564;82;27386;-60
2023/09/03 02:37:05;;;;;;;18.82;14.25;;;;;;;11.36;80.10;100841.64;1745652;82;25548;-60
2023/09/03 02:39:32;;;;;;;21.62;15.88;;;;;;;11.35;80.07;100840.81;1745682;82;25543;-61
2023/09/03 02:41:58;;;;;;;19.12;14.93;;;;;;;11.35;79.85;100838.67;1745675;82;25408;-61
2023/09/03 02:44:24;;;;;;;18.48;14.80;;;;;;;11.33;80.16;100834.11;1745717;81;27489;-60
2023/09/03 02:46:52;;;;;;;19.65;14.90;;;;;;;11.32;80.07;100834.67;1745527;81;25543;-60
2023/09/03 02:49:18;;;;;;;18.20;14.60;;;;;;;11.31;79.92;100832.27;1745603;82;25374;-58
2023/09/03 02:51:44;;;;;;;22.90;14.80;;;;;;;11.29;79.83;100827.67;1745530;82;25638;-60
2023/09/03 02:54:10;;;;;;;18.90;14.85;;;;;;;11.24;79.67;100821.83;1745614;82;25656;-60
2023/09/03 02:56:37;;;;;;;18.85;14.95;;;;;;;11.20;79.39;100828.39;1745610;82;27526;-60
2023/09/03 02:59:03;;;;;;;18.07;14.80;;;;;;;11.16;79.19;100827.37;1745483;82;25844;-60
2023/09/03 03:01:30;;;;;;;22.65;15.45;;;;;;;11.12;79.30;100822.31;1756256;81;25602;-60
2023/09/03 03:03:57;;;;;;;20.25;15.40;;;;;;;11.09;79.25;100824.27;1745597;82;25509;-61
2023/09/03 03:06:23;;;;;;;24.92;17.67;;;;;;;11.07;79.59;100825.65;1756321;81;25469;-60
2023/09/03 03:08:49;;;;;;;18.05;16.00;;;;;;;11.04;79.96;100818.95;1745603;82;27537;-60
2023/09/03 03:11:18;;;;;;;20.23;15.68;;;;;;;11.01;79.92;100815.48;1745472;81;27339;-61
2023/09/03 03:13:47;;;;;;;21.20;16.47;;;;;;;10.99;79.81;100817.69;1761926;81;25441;-61
2023/09/03 03:16:15;;;;;;;;;;;;;;;10.96;79.93;100815.02;1764530;81;26031;-61
2023/09/03 03:18:45;;;;;;;20.37;15.78;;;;;;;10.95;80.23;100813.42;1761980;81;25577;-61
2023/09/03 03:21:18;;;;;;;20.23;16.07;;;;;;;10.94;80.21;100813.72;1742701;82;28459;-61
2023/09/03 03:23:48;;;;;;;21.30;16.45;;;;;;;10.92;79.85;100809.95;1761673;81;25539;-60
2023/09/03 03:26:17;;;;;;;21.65;16.45;;;;;;;10.90;80.45;100807.31;1761854;81;25407;-61
2023/09/03 03:28:43;;;;;;;19.15;15.35;;;;;;;10.88;80.50;100806.25;1761911;81;25550;-61
2023/09/03 03:31:15;;;;;;;23.30;16.23;;;;;;;10.86;80.48;100815.19;1742685;82;25477;-61
2023/09/03 03:33:44;;;;;;;20.57;15.93;;;;;;;10.86;80.29;100818.45;1761968;81;27184;-61
2023/09/03 03:36:15;;;;;;;20.92;16.52;;;;;;;10.81;79.90;100813.41;1742733;82;25693;-61
2023/09/03 03:38:43;;;;;;;21.40;15.95;;;;;;;10.78;80.16;100819.41;1761361;81;25452;-61
2023/09/03 03:41:19;;;;;;;19.52;15.53;;;;;;;10.76;80.02;100820.78;1761901;81;25511;-60
2023/09/03 03:43:50;;;;;;;21.40;16.00;;;;;;;10.74;80.13;100821.08;1761976;81;25605;-60
2023/09/03 03:46:19;;;;;;;21.33;15.25;;;;;;;10.71;79.97;100820.88;1761947;81;27478;-60
2023/09/03 03:48:50;;;;;;;19.48;15.03;;;;;;;10.69;80.17;100827.13;1761944;81;25534;-61
2023/09/03 03:51:16;;;;;;;19.70;15.75;;;;;;;10.65;80.45;100825.58;1761909;81;25649;-61
2023/09/03 03:53:43;;;;;;;18.85;15.25;;;;;;;10.64;80.31;100828.02;1761817;81;25614;-61
2023/09/03 03:56:12;;;;;;;20.77;14.98;;;;;;;10.63;80.46;100829.13;1761942;81;25599;-61
2023/09/03 03:58:43;;;;;;;18.30;15.53;;;;;;;10.63;80.83;100835.89;1762050;81;27520;-61
2023/09/03 04:01:19;;;;;;;17.98;14.98;;;;;;;10.62;80.94;100835.62;1742620;82;25615;-61
2023/09/03 04:03:49;;;;;;;22.62;15.18;;;;;;;10.62;81.08;100840.52;1761949;81;25407;-60
2023/09/03 04:06:17;;;;;;;18.40;14.83;;;;;;;10.62;80.88;100834.28;1742646;82;25648;-61
2023/09/03 04:08:45;;;;;;;18.95;15.40;;;;;;;10.62;81.05;100839.16;1761942;81;25445;-61
2023/09/03 04:11:16;;;;;;;18.32;15.35;;;;;;;10.63;81.16;100837.25;1761865;81;27639;-60
2023/09/03 04:13:43;;;;;;;18.98;15.70;;;;;;;10.62;81.27;100839.16;1761775;81;25815;-61
2023/09/03 04:16:21;;;;;;;20.80;15.08;;;;;;;10.63;81.54;100838.05;1761911;81;25625;-60
2023/09/03 04:18:52;;;;;;;19.60;15.38;;;;;;;10.61;81.51;100837.54;1761886;81;25536;-60
2023/09/03 04:21:18;;;;;;;20.68;16.65;;;;;;;10.65;81.59;100837.75;1761963;81;25461;-60
2023/09/03 04:23:45;;;;;;;19.55;15.63;;;;;;;10.67;81.53;100849.63;1761879;81;28068;-61
2023/09/03 04:26:11;;;;;;;17.23;15.40;;;;;;;10.67;81.54;100851.78;1761820;81;25380;-60
2023/09/03 04:28:38;;;;;;;20.92;15.72;;;;;;;10.68;81.75;100856.10;1761846;81;25605;-60
2023/09/03 04:31:08;;;;;;;21.62;15.40;;;;;;;10.68;81.64;100853.39;1761784;81;25555;-60
2023/09/03 04:33:36;;;;;;;20.57;15.30;;;;;;;10.68;81.80;100851.25;1761891;81;25447;-60
2023/09/03 04:36:04;;;;;;;18.23;15.55;;;;;;;10.69;81.94;100847.43;1762004;81;28006;-62
2023/09/03 04:38:33;;;;;;;19.07;15.67;;;;;;;10.72;82.32;100852.25;1762089;81;25457;-60
2023/09/03 04:41:05;;;;;;;26.42;15.25;;;;;;;10.75;82.51;100853.02;1761865;81;25455;-60
2023/09/03 04:43:32;;;;;;;20.37;14.90;;;;;;;10.76;82.34;100856.78;1761839;81;25606;-60
2023/09/03 04:45:59;;;;;;;18.27;15.18;;;;;;;10.78;82.39;100855.14;1761896;81;25464;-60
2023/09/03 04:48:27;;;;;;;18.15;14.95;;;;;;;10.78;82.53;100861.34;1761809;81;27437;-61
2023/09/03 04:50:57;;;;;;;17.90;15.68;;;;;;;10.82;82.79;100864.26;1761816;81;25611;-60
2023/09/03 04:53:23;;;;;;;21.05;15.98;;;;;;;10.86;82.94;100867.97;1761938;81;25405;-60
2023/09/03 04:55:49;;;;;;;17.73;15.60;;;;;;;10.90;83.47;100876.33;1761933;81;25497;-60
2023/09/03 04:58:15;;;;;;;20.37;15.68;;;;;;;10.96;83.84;100879.97;1761910;81;25630;-60
2023/09/03 05:00:41;;;;;;;20.57;16.73;;;;;;;11.04;84.33;100875.79;1761790;81;27548;-60
2023/09/03 05:03:07;;;;;;;21.33;15.70;;;;;;;11.14;84.65;100888.35;1761815;81;25759;-59
2023/09/03 05:05:41;;;;;;;22.40;16.82;;;;;;;11.23;85.04;100882.49;1761837;81;25392;-57
2023/09/03 05:08:10;;;;;;;19.23;16.90;;;;;;;11.38;85.93;100877.34;1761842;81;25597;-59
2023/09/03 05:10:40;;;;;;;21.68;18.12;;;;;;;11.52;86.51;100874.64;1761854;81;25570;-60
2023/09/03 05:13:06;;;;;;;22.62;18.27;;;;;;;11.68;86.72;100869.71;1759446;81;27607;-60
2023/09/03 05:15:32;;;;;;;22.45;17.60;;;;;;;11.89;87.68;100870.11;1745447;82;25813;-60
2023/09/03 05:17:59;;;;;;;23.10;17.57;;;;;;;12.07;88.08;100878.70;1745464;82;25895;-60
2023/09/03 05:20:27;;;;;;;23.65;17.62;;;;;;;12.24;88.09;100877.23;1745468;82;25601;-60
2023/09/03 05:22:54;;;;;;;21.27;17.57;;;;;;;12.41;88.20;100880.65;1756235;81;25579;-59
2023/09/03 05:25:21;;;;;;;26.80;21.95;;;;;;;12.54;87.94;100879.80;1745538;82;27471;-60
2023/09/03 05:27:48;;;;;;;26.65;20.43;;;;;;;12.70;88.33;100881.05;1745477;82;25397;-60
2023/09/03 05:30:16;;;;;;;29.05;23.15;;;;;;;12.85;88.79;100882.56;1745603;81;25605;-60
2023/09/03 05:32:42;;;;;;;27.58;21.07;;;;;;;12.99;88.57;100881.16;1745441;81;25513;-60
2023/09/03 05:35:09;;;;;;;28.75;23.12;;;;;;;13.14;88.69;100872.36;1745565;82;25395;-60
2023/09/03 05:37:37;;;;;;;26.17;21.27;;;;;;;13.31;88.91;100877.07;1745568;82;28371;-60
2023/09/03 05:40:06;;;;;;;24.02;19.60;;;;;;;13.42;88.48;100869.72;1745374;82;25376;-60
2023/09/03 05:42:32;;;;;;;25.17;20.37;;;;;;;13.60;88.86;100869.77;1745716;82;25399;-60
2023/09/03 05:45:00;;;;;;;23.02;19.00;;;;;;;13.74;88.98;100869.11;1745511;82;26205;-60
2023/09/03 05:47:26;;;;;;;25.10;20.37;;;;;;;13.88;89.09;100870.91;1745617;82;25611;-60
2023/09/03 05:49:57;;;;;;;24.43;19.00;;;;;;;14.03;88.97;100869.09;1745493;82;27504;-60
2023/09/03 05:52:23;;;;;;;24.35;19.90;;;;;;;14.18;89.19;100871.88;1745416;82;25614;-59
2023/09/03 05:54:51;;;;;;;26.05;20.80;;;;;;;14.34;89.40;100869.50;1745580;81;25620;-60
2023/09/03 05:57:18;;;;;;;26.65;20.90;;;;;;;14.51;89.65;100874.94;1745572;82;25506;-60
2023/09/03 05:59:50;;;;;;;27.67;22.67;;;;;;;14.69;89.47;100881.75;1745515;82;25633;-60
2023/09/03 06:02:16;;;;;;;27.85;22.45;;;;;;;14.84;89.37;100875.80;1745610;81;27465;-60
2023/09/03 06:04:44;;;;;;;28.10;20.27;;;;;;;15.00;89.21;100882.09;1745448;82;25822;-60
2023/09/03 06:28:58;;;;;;;21.20;17.73;;;;;;;16.08;85.56;100891.34;1779194;80;27594;-60
2023/09/03 06:31:24;;;;;;;24.10;19.67;;;;;;;16.20;85.79;100900.95;1779313;80;25392;-61
2023/09/03 06:33:52;;;;;;;24.87;19.90;;;;;;;16.37;86.13;100888.31;1779438;80;25425;-61
2023/09/03 06:36:21;;;;;;;26.27;20.30;;;;;;;16.60;86.49;100896.94;1772562;80;25566;-61
2023/09/03 06:38:47;;;;;;;23.10;19.57;;;;;;;16.77;85.63;100890.52;1779495;80;25618;-61
2023/09/03 06:41:13;;;;;;;25.85;19.67;;;;;;;16.96;85.75;100902.36;1779466;80;27559;-61
2023/09/03 06:43:40;;;;;;;26.73;19.62;;;;;;;17.21;85.53;100896.36;1779293;80;25356;-61
2023/09/03 06:46:07;;;;;;;21.73;17.45;;;;;;;17.47;84.79;100905.64;1779482;80;25411;-61
2023/09/03 06:48:33;;;;;;;22.73;16.52;;;;;;;17.69;83.46;100908.50;1779430;80;25588;-62
2023/09/03 06:51:00;;;;;;;21.23;16.42;;;;;;;17.94;83.16;100911.23;1779500;80;25394;-62
2023/09/03 06:53:26;;;;;;;20.25;15.10;;;;;;;18.25;83.40;100913.36;1779400;80;28141;-60
2023/09/03 06:55:53;;;;;;;18.92;14.25;;;;;;;18.55;82.33;100917.14;1779392;80;25697;-62
2023/09/03 06:58:19;;;;;;;18.48;14.35;;;;;;;18.83;81.51;100913.62;1779453;80;25417;-62
2023/09/03 07:00:46;;;;;;;18.50;13.03;;;;;;;19.16;81.07;100922.15;1779398;80;25578;-61
2023/09/03 07:03:13;;;;;;;23.18;13.43;;;;;;;19.48;79.92;100924.34;1779438;80;25648;-61
2023/09/03 07:05:41;;;;;;;18.30;12.30;;;;;;;19.72;77.62;100926.08;1779419;80;27848;-60
2023/09/03 07:08:08;;;;;;;17.30;12.07;;;;;;;19.95;77.17;100927.64;1779341;80;25620;-59
2023/09/03 07:10:34;;;;;;;19.48;13.00;;;;;;;20.31;76.96;100928.98;1779421;80;25562;-60
2023/09/03 07:13:01;;;;;;;18.92;12.13;;;;;;;20.72;75.91;100918.46;1779378;80;25650;-59
2023/09/03 07:15:27;;;;;;;16.05;10.43;;;;;;;21.08;74.89;100925.44;1779421;80;25454;-59
2023/09/03 07:17:53;;;;;;;12.07;10.13;;;;;;;21.34;73.48;100928.64;1779416;80;28130;-60
2023/09/03 07:20:20;;;;;;;77.30;72.00;;;;;;;21.49;71.66;100931.87;1779314;80;25537;-60
2023/09/03 07:22:46;;;;;;;46.75;43.17;;;;;;;21.55;70.46;100929.59;1779405;80;25446;-59
2023/09/03 07:33:18;;;;;;;15.28;9.33;;;;;;;22.29;68.06;100940.77;1868389;76;25476;-61
2023/09/03 07:35:44;;;;;;;10.95;7.30;;;;;;;22.53;68.00;100943.03;1824648;78;25363;-60
2023/09/03 07:38:10;;;;;;;11.45;6.47;;;;;;;22.89;67.01;100937.92;1824552;78;28142;-61
2023/09/03 07:40:40;;;;;;;10.20;6.60;;;;;;;23.19;65.66;100948.13;1824520;78;25424;-61
2023/09/03 07:43:07;;;;;;;10.93;6.70;;;;;;;23.35;64.27;100947.08;1824577;78;25456;-60
2023/09/03 07:45:34;;;;;;;9.88;6.20;;;;;;;23.42;63.18;100952.06;1824571;78;25554;-61
2023/09/03 07:48:00;;;;;;;13.95;6.83;;;;;;;23.45;62.19;100949.14;1824578;78;25371;-60
2023/09/03 07:50:28;;;;;;;9.28;5.40;;;;;;;23.47;61.77;100955.85;1824502;78;27393;-60
2023/09/03 07:52:55;;;;;;;10.60;6.27;;;;;;;23.42;60.89;100958.97;1824662;78;26118;-60
2023/09/03 07:55:22;;;;;;;9.40;5.95;;;;;;;23.37;59.98;100958.53;1824470;78;25379;-59
2023/09/03 07:57:48;;;;;;;7.92;5.67;;;;;;;23.28;59.61;100958.25;1824415;78;25590;-60
2023/09/03 08:00:14;;;;;;;8.28;5.90;;;;;;;23.21;58.99;100960.16;1824495;77;25563;-60
2023/09/03 08:02:40;;;;;;;9.75;5.60;;;;;;;23.11;59.24;100960.25;1824449;78;27965;-62
2023/09/03 08:05:11;;;;;;;8.00;6.47;;;;;;;23.02;59.10;100966.62;1824364;78;25606;-62
2023/09/03 08:07:36;;;;;;;10.35;5.85;;;;;;;22.94;58.95;100965.77;1824124;78;25608;-59
2023/09/03 08:10:03;;;;;;;48.38;43.20;;;;;;;22.84;58.50;100969.19;1824366;78;25544;-58
2023/09/03 08:12:30;;;;;;;38.73;32.05;;;;;;;22.72;58.92;100968.27;1824423;78;25641;-59
2023/09/03 08:14:56;;;;;;;25.65;20.82;;;;;;;22.67;58.98;100975.48;1824456;78;28046;-63
2023/09/03 08:17:23;;;;;;;29.15;20.43;;;;;;;22.63;59.15;100971.91;1824360;78;25590;-62
2023/09/03 08:19:50;;;;;;;18.77;14.63;;;;;;;22.62;59.24;100969.52;1824459;78;25523;-62
2023/09/03 08:22:18;;;;;;;12.20;7.80;;;;;;;22.56;59.32;100965.72;1824402;78;25536;-64
2023/09/03 08:24:44;;;;;;;10.98;6.87;;;;;;;22.53;59.19;100969.81;1824473;78;25509;-64
2023/09/03 08:27:10;;;;;;;9.15;7.35;;;;;;;22.48;58.95;100973.68;1824354;78;27456;-63
2023/09/03 08:29:37;;;;;;;9.35;6.40;;;;;;;22.41;59.05;100977.73;1824180;78;25604;-65
2023/09/03 08:32:05;;;;;;;12.43;7.20;;;;;;;22.34;59.25;100970.75;1826682;77;25560;-63
2023/09/03 08:34:33;;;;;;;10.55;6.80;;;;;;;22.32;59.69;100974.44;1830743;77;25510;-63
2023/09/03 08:36:59;;;;;;;7.35;5.47;;;;;;;22.30;60.10;100972.05;1830653;77;25447;-58
2023/09/03 08:39:26;;;;;;;15.50;10.63;;;;;;;22.24;60.44;100961.12;1830524;77;28144;-66
2023/09/03 08:41:54;;;;;;;11.78;8.20;;;;;;;22.10;60.86;100963.66;1830454;78;25570;-66
2023/09/03 08:44:37;;;;;;;9.75;6.85;;;;;;;21.91;61.43;100950.80;1830276;78;25468;-66
2023/09/03 08:47:06;;;;;;;9.85;6.22;;;;;;;21.78;62.52;100959.86;1829319;77;25556;-65
2023/09/03 08:49:35;;;;;;;8.73;6.87;;;;;;;21.57;62.69;100960.30;1830027;77;25614;-65
2023/09/03 08:52:04;;;;;;;7.80;6.15;;;;;;;21.44;63.68;100956.92;1829906;78;27453;-64
2023/09/03 08:54:31;;;;;;;7.15;5.72;;;;;;;21.39;64.44;100954.47;1830018;78;25569;-64
2023/09/03 08:57:00;;;;;;;8.40;7.03;;;;;;;21.35;65.06;100958.55;1814020;78;25569;-66
2023/09/03 08:59:26;;;;;;;9.35;6.45;;;;;;;21.33;65.83;100969.09;1830091;78;25437;-65
2023/09/03 09:01:56;;;;;;;7.83;6.08;;;;;;;21.33;67.11;100967.72;1830038;77;25598;-64
2023/09/03 09:04:26;;;;;;;10.15;6.53;;;;;;;21.31;67.28;100965.92;1829999;78;28027;-65
2023/09/03 09:06:53;;;;;;;8.28;6.22;;;;;;;21.33;67.51;100960.05;1829863;77;25625;-63
2023/09/03 09:09:21;;;;;;;9.90;6.55;;;;;;;21.36;67.91;100952.45;1829910;78;25390;-64
2023/09/03 09:11:55;;;;;;;8.08;6.83;;;;;;;21.57;71.18;100951.47;1813628;78;25650;-64
2023/09/03 09:14:30;;;;;;;8.15;6.20;;;;;;;22.23;72.82;100949.88;1829711;77;25466;-63
2023/09/03 09:16:56;;;;;;;8.03;5.33;;;;;;;23.04;71.97;100943.02;1830015;78;28336;-63
2023/09/03 09:19:22;;;;;;;8.78;5.78;;;;;;;23.91;71.62;100950.70;1829901;77;25377;-62
2023/09/03 11:31:01;;;;;;;4.90;2.92;;;;;;;34.59;34.33;100905.57;1868372;76;25289;-55
2023/09/03 11:33:29;;;;;;;1.80;1.70;;;;;;;34.75;34.02;100905.19;1824529;78;25530;-53
2023/09/03 11:36:00;;;;;;;4.03;1.57;;;;;;;34.95;33.83;100905.56;1824597;78;27472;-57
2023/09/03 11:38:33;;;;;;;3.98;1.70;;;;;;;34.92;33.22;100905.71;1824428;78;25608;-57
2023/09/03 11:41:02;;;;;;;2.17;1.62;;;;;;;35.01;33.30;100909.97;1824535;78;25371;-55
2023/09/03 11:43:33;;;;;;;2.40;1.60;;;;;;;35.05;32.39;100907.78;1824443;78;25428;-57
2023/09/03 11:46:01;;;;;;;2.80;1.77;;;;;;;34.67;31.77;100910.90;1824386;78;25376;-56
2023/09/03 11:48:32;;;;;;;2.83;1.95;;;;;;;33.97;32.13;100913.32;1824490;78;27998;-55
2023/09/03 11:50:58;;;;;;;2.77;1.50;;;;;;;33.42;32.65;100919.84;1824411;78;25509;-56
2023/09/03 11:53:30;;;;;;;2.45;2.25;;;;;;;32.94;32.65;100923.98;1824456;78;25685;-56
2023/09/03 11:56:00;;;;;;;2.25;1.52;;;;;;;32.42;33.00;100918.16;1822937;78;25538;-56
2023/09/03 11:58:29;;;;;;;4.10;1.75;;;;;;;32.02;33.38;100922.84;1824523;78;25561;-60
2023/09/03 12:00:58;;;;;;;3.33;1.52;;;;;;;31.84;33.89;100916.96;1804048;78;27508;-59
2023/09/03 12:03:26;;;;;;;;;;;;;;;31.60;34.25;100909.42;1827116;78;27326;-54
2023/09/03 12:05:54;;;;;;;2.27;1.87;;;;;;;31.40;34.12;100905.34;1824694;78;25364;-56
2023/09/03 12:08:22;;;;;;;3.85;2.02;;;;;;;31.50;34.64;100910.46;1824555;78;25561;-57
2023/09/03 12:10:50;;;;;;;2.45;1.50;;;;;;;31.26;34.23;100909.27;1824553;78;25356;-64
2023/09/03 12:13:39;;;;;;;3.80;2.12;;;;;;;30.96;34.66;100903.44;1824466;78;28271;-58
2023/09/03 12:16:16;;;;;;;3.43;2.20;;;;;;;30.78;34.75;100903.19;1824648;78;25852;-60
2023/09/03 12:18:59;;;;;;;2.55;2.08;;;;;;;30.42;35.30;100892.83;1824496;78;25538;-60
2023/09/03 12:21:37;;;;;;;1.92;1.50;;;;;;;30.66;36.09;100885.12;1824336;78;25542;-58
2023/09/03 12:24:07;;;;;;;3.55;1.62;;;;;;;31.02;35.31;100888.52;1824469;78;25395;-59
2023/09/03 12:26:36;;;;;;;2.37;1.50;;;;;;;31.75;34.17;100905.64;1824439;78;28018;-58
2023/09/03 12:29:08;;;;;;;1.60;1.50;;;;;;;31.75;34.17;100905.64;1824166;78;26193;-59
2023/09/03 12:31:42;;;;;;;4.10;3.45;;;;;;;31.84;34.34;100888.99;1822632;78;25428;-58
2023/09/03 12:34:11;;;;;;;2.55;2.20;;;;;;;31.96;33.50;100884.67;1803510;78;26131;-58
2023/09/03 12:36:56;;;;;;;2.42;1.80;;;;;;;31.16;33.78;100883.77;1824493;78;25644;-59
2023/09/03 12:39:42;;;;;;;3.22;2.00;;;;;;;31.16;33.78;100883.77;1729767;82;27381;-62
2023/09/03 12:42:11;;;;;;;5.85;4.97;;;;;;;31.55;33.79;100899.59;1729199;83;25590;-60
2023/09/03 12:44:42;;;;;;;2.75;1.90;;;;;;;31.55;33.79;100899.59;1729136;83;25629;-60
2023/09/03 12:47:09;;;;;;;2.58;2.17;;;;;;;31.64;34.07;100873.78;1700001;84;25628;-61
2023/09/03 12:49:38;;;;;;;3.58;2.12;;;;;;;32.28;34.04;100893.56;1699996;84;25622;-61
2023/09/03 12:52:07;;;;;;;2.35;1.77;;;;;;;32.45;33.84;100874.66;1699986;84;27580;-62
2023/09/03 12:54:34;;;;;;;3.35;2.58;;;;;;;32.60;33.30;100879.83;1699821;84;27328;-56
2023/09/03 12:57:01;;;;;;;4.37;2.05;;;;;;;32.34;32.93;100887.59;1700007;84;25455;-58
2023/09/03 12:59:27;;;;;;;4.22;3.58;;;;;;;31.93;32.56;100891.95;1699080;84;25683;-59
2023/09/03 13:01:54;;;;;;;8.73;7.65;;;;;;;31.49;32.45;100885.16;1698424;84;25725;-60
2023/09/03 13:04:20;;;;;;;8.08;6.87;;;;;;;31.05;32.92;100885.45;1699936;84;27452;-61
2023/09/03 13:06:48;;;;;;;2.70;2.50;;;;;;;30.64;33.07;100887.56;1699832;84;25634;-59
2023/09/03 13:09:14;;;;;;;4.37;2.60;;;;;;;30.28;33.31;100893.90;1700088;84;25550;-50
2023/09/03 13:11:40;;;;;;;3.10;2.33;;;;;;;29.85;33.59;100889.20;1699925;84;25431;-54
2023/09/03 13:14:06;;;;;;;2.70;2.02;;;;;;;29.59;34.31;100886.66;1699995;84;25767;-53
2023/09/03 13:16:34;;;;;;;1.98;1.75;;;;;;;29.74;34.91;100885.17;1766720;80;27486;-50
2023/09/03 13:19:01;;;;;;;2.37;2.00;;;;;;;30.09;35.18;100888.52;1791216;80;25679;-52
2023/09/03 13:21:35;;;;;;;3.50;2.20;;;;;;;30.41;35.03;100882.91;1790080;79;25628;-53
2023/09/03 13:24:00;;;;;;;3.92;2.08;;;;;;;30.78;34.60;100882.88;1789750;79;25658;-54
2023/09/03 13:26:26;;;;;;;2.30;1.90;;;;;;;31.09;34.48;100878.56;1790017;79;25700;-53
2023/09/03 13:28:52;;;;;;;5.05;2.12;;;;;;;31.41;34.37;100881.13;1789983;80;27537;-52
2023/09/03 13:31:21;;;;;;;3.70;2.52;;;;;;;31.61;33.70;100876.06;1795264;79;25715;-50
2023/09/03 13:33:47;;;;;;;4.90;2.22;;;;;;;31.82;33.48;100883.88;1796124;79;25686;-50
2023/09/03 13:36:15;;;;;;;4.37;2.10;;;;;;;31.82;33.48;100883.88;1797062;79;25424;-50
2023/09/03 13:38:42;;;;;;;2.83;2.15;;;;;;;32.06;33.22;100878.64;1797496;79;25452;-51
2023/09/03 13:41:09;;;;;;;3.40;2.15;;;;;;;32.20;32.59;100881.03;1797312;79;27528;-53
2023/09/03 13:43:36;;;;;;;2.62;1.95;;;;;;;32.24;32.47;100880.92;1797258;79;25561;-57
2023/09/03 13:46:02;;;;;;;2.40;2.20;;;;;;;32.39;32.58;100871.64;1797168;79;25568;-59
2023/09/03 13:48:29;;;;;;;4.03;2.17;;;;;;;32.28;32.22;100877.39;1797170;79;25637;-57
2023/09/03 13:50:55;;;;;;;2.72;2.10;;;;;;;31.94;32.33;100882.94;1797214;79;25420;-51
2023/09/03 13:53:26;;;;;;;3.05;2.20;;;;;;;31.64;33.60;100880.78;1781606;79;28051;-52
2023/09/03 13:55:52;;;;;;;2.50;2.27;;;;;;;31.33;33.60;100877.56;1797215;79;25782;-54
2023/09/03 13:58:18;;;;;;;4.42;2.05;;;;;;;31.33;33.60;100877.56;1796824;79;25663;-53
2023/09/03 14:00:45;;;;;;;3.98;1.92;;;;;;;31.19;33.41;100882.28;1796992;79;25642;-54